Time;durP1;ratioP1;P1;durP2;ratioP2;P2;SDS_P1;SDS_P2;PMS_P1;PMS_P2;Temp;Humidity;BMP_temperature;BMP_pressure;BME280_temperature;BME280_humidity;BME280_pressure;Samples;Min_cycle;Max_cycle;Signal;HPM_P1;HPM_P2
2021/07/18 00:00:19;;;;;;;4.90;4.07;;;;;;;16.26;80.77;102691.66;5041532;28;20085;-76
2021/07/18 00:02:44;;;;;;;7.90;4.10;;;;;;;16.26;81.03;102690.78;5046048;28;20026;-75
2021/07/18 00:05:10;;;;;;;8.32;4.18;;;;;;;16.23;80.91;102680.16;5044217;28;20030;-77
2021/07/18 00:07:36;;;;;;;7.50;4.50;;;;;;;16.21;80.96;102681.91;5042615;28;20464;-76
2021/07/18 00:10:02;;;;;;;6.70;4.38;;;;;;;16.17;80.82;102681.91;5042130;28;20056;-77
2021/07/18 00:12:28;;;;;;;6.00;4.03;;;;;;;16.15;80.91;102677.47;5042314;28;20037;-76
2021/07/18 00:14:53;;;;;;;5.53;4.40;;;;;;;16.11;80.98;102676.56;5045988;28;20030;-75
2021/07/18 00:17:19;;;;;;;4.72;3.72;;;;;;;16.09;80.88;102680.09;5042823;28;20029;-77
2021/07/18 00:19:44;;;;;;;7.93;4.65;;;;;;;16.08;80.96;102684.50;5044250;28;20034;-76
2021/07/18 00:22:10;;;;;;;5.90;4.45;;;;;;;16.06;80.90;102673.00;5033103;28;20625;-77
2021/07/18 00:24:35;;;;;;;6.78;3.70;;;;;;;16.06;80.96;102674.78;5033995;28;20034;-76
2021/07/18 00:27:01;;;;;;;9.77;4.25;;;;;;;16.03;80.95;102667.72;5032092;28;20029;-76
2021/07/18 00:29:26;;;;;;;6.43;4.20;;;;;;;16.02;81.22;102667.69;5032146;28;20052;-76
2021/07/18 00:31:52;;;;;;;7.07;4.15;;;;;;;16.01;80.93;102663.25;5032952;28;20038;-76
2021/07/18 00:34:17;;;;;;;8.38;4.18;;;;;;;16.00;81.07;102666.81;5033179;28;20033;-76
2021/07/18 00:36:44;;;;;;;5.43;4.28;;;;;;;15.98;80.73;102669.44;5033246;28;20044;-76
2021/07/18 00:39:09;;;;;;;5.90;4.20;;;;;;;15.94;80.99;102671.19;5036564;28;20037;-76
2021/07/18 00:41:35;;;;;;;7.20;3.78;;;;;;;15.94;80.99;102672.97;5037663;28;20052;-77
2021/07/18 00:44:00;;;;;;;8.23;4.10;;;;;;;15.92;81.04;102672.94;5044613;28;20071;-77
2021/07/18 00:46:26;;;;;;;7.78;3.92;;;;;;;15.91;80.84;102679.13;5044745;28;20029;-75
2021/07/18 00:48:51;;;;;;;8.45;4.60;;;;;;;15.90;81.30;102672.06;5045371;28;20057;-77
2021/07/18 00:51:16;;;;;;;5.50;4.20;;;;;;;15.90;81.35;102676.47;5043958;28;20049;-77
2021/07/18 00:53:42;;;;;;;9.13;4.82;;;;;;;15.91;81.20;102671.16;5044338;28;20122;-76
2021/07/18 00:56:08;;;;;;;11.10;4.70;;;;;;;15.92;81.47;102678.25;5046449;28;20033;-76
2021/07/18 00:58:36;;;;;;;8.98;4.80;;;;;;;15.91;81.57;102671.16;5044887;28;20253;-76
2021/07/18 01:01:02;;;;;;;5.85;4.50;;;;;;;15.89;81.73;102664.09;5044053;28;20029;-77
2021/07/18 01:03:28;;;;;;;12.73;5.38;;;;;;;15.89;81.73;102677.34;5045934;28;20499;-78
2021/07/18 01:05:54;;;;;;;8.93;5.00;;;;;;;15.88;81.88;102678.22;5044522;28;20126;-77
2021/07/18 01:08:20;;;;;;;11.00;5.07;;;;;;;15.88;81.59;102668.50;5041879;28;20037;-78
2021/07/18 01:10:45;;;;;;;7.25;5.10;;;;;;;15.87;81.50;102664.06;5020180;28;20059;-77
2021/07/18 01:13:11;;;;;;;8.45;4.88;;;;;;;15.88;81.57;102672.91;5042181;28;20036;-77
2021/07/18 01:15:38;;;;;;;9.32;4.72;;;;;;;15.87;81.74;102666.72;5043129;28;20060;-77
2021/07/18 01:18:04;;;;;;;8.05;5.00;;;;;;;15.85;81.41;102668.47;5041073;28;20033;-77
2021/07/18 01:20:29;;;;;;;6.78;4.93;;;;;;;15.84;81.34;102663.16;5035585;28;20156;-77
2021/07/18 01:22:55;;;;;;;6.18;4.78;;;;;;;15.83;81.28;102664.06;5041157;28;20416;-78
2021/07/18 01:25:21;;;;;;;6.63;4.40;;;;;;;15.81;81.34;102657.88;5039194;28;20487;-77
2021/07/18 01:27:48;;;;;;;7.90;4.90;;;;;;;15.80;81.45;102651.66;5039031;28;20080;-78
2021/07/18 01:30:14;;;;;;;7.03;4.32;;;;;;;15.79;81.49;102655.22;5042675;28;20028;-77
2021/07/18 01:32:41;;;;;;;7.30;4.45;;;;;;;15.77;81.27;102657.84;5043649;28;20034;-78
2021/07/18 01:35:07;;;;;;;7.40;4.60;;;;;;;15.76;81.50;102655.19;5042354;28;20033;-76
2021/07/18 01:37:32;;;;;;;8.32;5.18;;;;;;;15.77;81.35;102654.31;5033200;28;20374;-78
2021/07/18 01:39:58;;;;;;;6.93;4.40;;;;;;;15.76;81.51;102648.13;5030126;28;20053;-77
2021/07/18 01:42:24;;;;;;;6.82;4.65;;;;;;;15.75;81.68;102645.47;5040015;28;20041;-77
2021/07/18 01:44:50;;;;;;;9.82;4.82;;;;;;;15.72;81.61;102642.75;5042872;28;20036;-78
2021/07/18 01:47:15;;;;;;;4.95;4.40;;;;;;;15.69;81.49;102641.00;5036671;28;20033;-78
2021/07/18 01:49:41;;;;;;;6.85;4.72;;;;;;;15.68;81.94;102641.84;5028846;28;20076;-79
2021/07/18 01:52:07;;;;;;;9.25;5.32;;;;;;;15.70;81.59;102647.16;5035024;28;20034;-78
2021/07/18 01:54:32;;;;;;;9.38;4.80;;;;;;;15.69;82.04;102642.72;5041440;28;20038;-78
2021/07/18 01:57:10;;;;;;;6.72;4.50;;;;;;;15.68;81.67;102643.63;5044395;28;20036;-79
2021/07/18 01:59:36;;;;;;;6.82;4.88;;;;;;;15.68;81.82;102641.84;5040905;28;20119;-77
2021/07/18 02:02:01;;;;;;;9.73;4.55;;;;;;;15.66;81.85;102638.31;5042431;28;20440;-79
2021/07/18 02:04:26;;;;;;;6.57;4.60;;;;;;;15.65;81.95;102639.22;5043187;28;20064;-77
2021/07/18 02:06:52;;;;;;;6.93;4.60;;;;;;;15.64;81.93;102639.19;5042832;28;20525;-80
2021/07/18 02:09:17;;;;;;;7.38;4.28;;;;;;;15.64;81.74;102637.41;5039724;28;20080;-77
2021/07/18 02:11:43;;;;;;;6.68;4.57;;;;;;;15.64;81.68;102644.50;5030743;28;20484;-80
2021/07/18 02:14:08;;;;;;;6.30;4.65;;;;;;;15.64;81.95;102641.84;5030249;28;20100;-80
2021/07/18 02:16:33;;;;;;;7.65;5.03;;;;;;;15.64;82.16;102644.50;5030923;28;20029;-78
2021/07/18 02:19:06;;;;;;;10.20;4.82;;;;;;;15.64;82.22;102647.13;5028750;28;20044;-80
2021/07/18 02:21:32;;;;;;;7.40;4.50;;;;;;;15.62;81.87;102638.28;5029757;28;20033;-78
2021/07/18 02:23:57;;;;;;;9.05;4.60;;;;;;;15.59;81.87;102637.41;5029801;28;20060;-79
2021/07/18 02:26:27;;;;;;;8.05;4.90;;;;;;;15.59;82.05;102637.41;5030560;28;20036;-79
2021/07/18 02:28:52;;;;;;;;;;;;;;;15.58;81.89;102638.28;5030066;28;20034;-77
2021/07/18 02:31:18;;;;;;;7.32;4.80;;;;;;;15.61;82.20;102640.03;5031033;28;19976;-80
2021/07/18 02:33:43;;;;;;;8.23;4.70;;;;;;;15.59;82.28;102625.91;5029774;28;20041;-79
2021/07/18 02:36:08;;;;;;;8.20;4.80;;;;;;;15.59;82.16;102631.19;5015780;28;20728;-79
2021/07/18 02:38:34;;;;;;;7.75;5.07;;;;;;;15.58;82.07;102627.66;5034921;28;20029;-79
2021/07/18 02:40:59;;;;;;;6.72;5.07;;;;;;;15.57;82.29;102631.19;5024045;28;20049;-80
2021/07/18 02:43:25;;;;;;;8.15;4.68;;;;;;;15.57;82.10;102632.94;5043252;28;20030;-79
2021/07/18 02:45:50;;;;;;;7.45;5.05;;;;;;;15.56;82.01;102637.38;5045940;28;20029;-80
2021/07/18 02:48:15;;;;;;;6.97;4.75;;;;;;;15.55;81.99;102632.94;5026001;28;20144;-79
2021/07/18 02:50:41;;;;;;;6.68;4.40;;;;;;;15.54;82.12;102627.66;5045635;28;20045;-79
2021/07/18 02:53:06;;;;;;;8.88;4.93;;;;;;;15.55;82.27;102629.41;5043001;28;20034;-82
2021/07/18 02:55:32;;;;;;;8.85;4.57;;;;;;;15.52;81.95;102627.63;5037719;28;20034;-79
2021/07/18 02:57:57;;;;;;;8.27;5.30;;;;;;;15.52;82.22;102626.72;5040795;28;20033;-80
2021/07/18 03:00:24;;;;;;;7.20;4.40;;;;;;;15.49;81.87;102627.59;5040137;28;20120;-80
2021/07/18 03:02:50;;;;;;;6.70;4.55;;;;;;;15.47;82.02;102625.84;5042501;28;20113;-79
2021/07/18 03:05:16;;;;;;;8.02;4.50;;;;;;;15.44;82.42;102628.47;5042058;28;20485;-80
2021/07/18 03:07:42;;;;;;;8.13;4.82;;;;;;;15.38;82.49;102616.94;5031306;28;20049;-80
2021/07/18 03:10:09;;;;;;;6.90;4.80;;;;;;;15.36;82.31;102628.41;5040258;28;20018;-80
2021/07/18 03:12:35;;;;;;;8.85;4.80;;;;;;;15.34;82.07;102624.88;5040842;28;20116;-82
2021/07/18 03:15:06;;;;;;;5.60;4.47;;;;;;;15.33;82.10;102620.44;5043245;28;20255;-80
2021/07/18 03:17:31;;;;;;;9.15;4.15;;;;;;;15.31;82.23;102612.50;5038378;28;20041;-79
2021/07/18 03:19:58;;;;;;;6.80;4.15;;;;;;;15.31;81.73;102609.84;5030961;28;20125;-82
2021/07/18 03:22:24;;;;;;;6.18;4.32;;;;;;;15.30;81.84;102610.72;5044097;28;20060;-80
2021/07/18 03:24:50;;;;;;;6.50;4.40;;;;;;;15.28;82.12;102604.53;5056115;28;20010;-81
2021/07/18 03:27:15;;;;;;;5.55;4.47;;;;;;;15.27;82.03;102604.50;5051366;28;20081;-78
2021/07/18 03:29:41;;;;;;;6.35;4.50;;;;;;;15.26;82.27;102608.03;5048661;28;20036;-79
2021/07/18 03:32:06;;;;;;;7.03;4.30;;;;;;;15.22;82.17;102604.50;5044122;28;20026;-81
2021/07/18 03:34:32;;;;;;;11.32;4.47;;;;;;;15.21;82.02;102608.00;5055322;28;20051;-81
2021/07/18 03:36:57;;;;;;;6.57;4.60;;;;;;;15.19;82.37;102604.44;5045987;28;20029;-80
2021/07/18 03:39:23;;;;;;;6.90;4.57;;;;;;;15.17;82.26;102600.91;5034191;28;20030;-81
2021/07/18 03:41:48;;;;;;;6.78;5.28;;;;;;;15.13;82.16;102601.78;5045460;28;20119;-81
2021/07/18 03:44:14;;;;;;;5.20;4.65;;;;;;;15.09;82.06;102598.22;5045799;28;20550;-82
2021/07/18 03:46:39;;;;;;;6.82;4.22;;;;;;;15.08;81.97;102608.78;5045719;28;20029;-81
2021/07/18 03:49:05;;;;;;;9.00;5.30;;;;;;;15.06;82.27;102602.59;5041852;28;20030;-81
2021/07/18 03:51:30;;;;;;;7.45;4.75;;;;;;;15.04;82.49;102607.88;5046977;28;20113;-81
2021/07/18 03:53:56;;;;;;;8.07;5.00;;;;;;;15.06;82.39;102602.59;5045926;28;20037;-82
2021/07/18 03:56:22;;;;;;;8.23;5.50;;;;;;;15.05;82.29;102603.44;5041768;28;20065;-81
2021/07/18 03:58:49;;;;;;;6.82;5.20;;;;;;;15.04;82.12;102609.63;5039252;28;20030;-82
2021/07/18 04:01:14;;;;;;;8.02;5.40;;;;;;;15.04;82.27;102609.63;5044607;28;20095;-80
2021/07/18 04:03:40;;;;;;;8.88;5.25;;;;;;;15.04;82.14;102613.16;5044791;28;20025;-82
2021/07/18 04:06:06;;;;;;;5.70;4.90;;;;;;;15.05;82.00;102612.31;5046031;28;20101;-82
2021/07/18 04:08:31;;;;;;;7.25;4.85;;;;;;;15.08;82.18;102620.25;5042570;28;20037;-82
2021/07/18 04:10:57;;;;;;;5.55;4.95;;;;;;;15.09;81.96;102623.81;5019147;28;20033;-81
2021/07/18 04:13:22;;;;;;;9.02;4.97;;;;;;;15.10;81.96;102617.63;5045568;28;20030;-81
2021/07/18 04:15:48;;;;;;;7.75;5.13;;;;;;;15.12;81.86;102616.78;5042805;28;20033;-80
2021/07/18 04:18:13;;;;;;;8.85;5.28;;;;;;;15.11;82.21;102617.63;5041701;28;20033;-81
2021/07/18 04:20:39;;;;;;;6.50;4.82;;;;;;;15.11;82.32;102622.94;5041859;28;20103;-81
2021/07/18 04:23:06;;;;;;;8.90;5.63;;;;;;;15.10;82.19;102618.50;5044488;28;20404;-82
2021/07/18 04:25:31;;;;;;;8.98;5.55;;;;;;;15.08;82.46;102617.59;5042267;28;20030;-81
2021/07/18 04:27:56;;;;;;;7.05;5.20;;;;;;;15.11;82.23;102615.00;5040729;28;20040;-81
2021/07/18 04:30:22;;;;;;;9.48;5.57;;;;;;;15.16;82.35;102615.91;5044333;28;20047;-82
2021/07/18 04:32:48;;;;;;;7.03;5.60;;;;;;;15.18;82.34;102611.53;5045461;28;20120;-81
2021/07/18 04:35:14;;;;;;;8.55;5.85;;;;;;;15.26;82.12;102616.00;5033188;28;20041;-81
2021/07/18 04:37:40;;;;;;;6.97;5.13;;;;;;;15.33;82.00;102615.13;5040482;28;20032;-82
2021/07/18 04:40:07;;;;;;;7.57;4.82;;;;;;;15.42;81.75;102611.66;5040520;28;20107;-81
2021/07/18 04:42:32;;;;;;;6.55;5.13;;;;;;;15.52;81.70;102613.47;5042211;28;20049;-82
2021/07/18 04:44:58;;;;;;;9.48;5.18;;;;;;;15.57;81.31;102612.63;5035807;28;20022;-81
2021/07/18 04:47:23;;;;;;;5.90;5.20;;;;;;;15.64;81.18;102616.22;5042622;28;20030;-82
2021/07/18 04:49:50;;;;;;;6.30;4.88;;;;;;;15.67;81.18;102629.50;5043548;28;20029;-82
2021/07/18 04:52:17;;;;;;;6.28;5.30;;;;;;;15.72;81.33;102618.91;5041166;28;20034;-80
2021/07/18 04:54:42;;;;;;;9.57;5.28;;;;;;;15.78;81.28;102621.63;5032029;28;20040;-83
2021/07/18 04:57:08;;;;;;;8.27;5.45;;;;;;;15.83;81.08;102616.34;5040888;28;20026;-80
2021/07/18 04:59:33;;;;;;;9.13;5.30;;;;;;;15.87;81.29;102620.78;5039413;28;20061;-83
2021/07/18 05:01:58;;;;;;;8.68;5.47;;;;;;;15.88;81.25;102620.81;5043861;28;20036;-82
2021/07/18 05:04:24;;;;;;;7.60;5.32;;;;;;;15.93;81.30;102626.97;5045049;28;20038;-82
2021/07/18 05:06:49;;;;;;;9.27;5.32;;;;;;;16.01;81.29;102623.47;5043642;28;20045;-81
2021/07/18 05:09:14;;;;;;;9.35;5.65;;;;;;;16.06;81.43;102619.09;5042599;28;20033;-83
2021/07/18 05:11:40;;;;;;;9.98;5.38;;;;;;;16.13;81.59;102624.44;5032293;28;20029;-81
2021/07/18 05:14:05;;;;;;;7.85;5.40;;;;;;;16.21;81.44;102618.28;5031862;28;20045;-81
2021/07/18 05:16:30;;;;;;;7.50;4.90;;;;;;;16.23;81.53;102612.06;5031510;28;20290;-82
2021/07/18 05:18:56;;;;;;;6.80;4.90;;;;;;;16.32;81.21;102617.41;5031812;28;20045;-81
2021/07/18 05:21:21;;;;;;;7.22;4.95;;;;;;;16.42;81.17;102614.78;5031300;28;20038;-79
2021/07/18 05:23:47;;;;;;;9.18;4.70;;;;;;;16.50;80.96;102607.72;5030423;28;20100;-80
2021/07/18 05:26:12;;;;;;;5.30;4.22;;;;;;;16.56;80.72;102613.06;5031070;28;20026;-83
2021/07/18 05:28:37;;;;;;;6.07;4.38;;;;;;;16.65;80.70;102614.81;5032037;28;20094;-83
2021/07/18 05:31:03;;;;;;;8.45;4.18;;;;;;;16.70;80.51;102608.63;5032082;28;20060;-82
2021/07/18 05:33:28;;;;;;;7.13;4.15;;;;;;;16.78;80.49;102611.28;5031703;28;20029;-83
2021/07/18 05:35:55;;;;;;;4.70;3.88;;;;;;;16.86;80.48;102614.88;5029398;28;20042;-82
2021/07/18 05:38:20;;;;;;;7.28;4.13;;;;;;;16.94;80.44;102612.22;5031214;28;20579;-82
2021/07/18 05:40:45;;;;;;;6.07;3.58;;;;;;;17.03;79.83;102613.97;5040477;28;20072;-82
2021/07/18 05:43:11;;;;;;;7.63;4.10;;;;;;;17.14;79.86;102617.50;5041708;28;20033;-81
2021/07/18 05:45:36;;;;;;;5.97;3.20;;;;;;;17.25;79.80;102620.16;5043928;28;20038;-82
2021/07/18 05:48:02;;;;;;;6.18;2.90;;;;;;;17.35;79.66;102616.59;5041351;28;20033;-81
2021/07/18 05:50:27;;;;;;;6.45;2.95;;;;;;;17.49;78.64;102614.81;5039653;28;20049;-81
2021/07/18 05:52:53;;;;;;;7.15;3.10;;;;;;;17.60;78.15;102606.81;5036741;28;20442;-81
2021/07/18 05:55:18;;;;;;;7.05;3.00;;;;;;;17.74;77.31;102612.06;5037403;28;20037;-80
2021/07/18 05:57:43;;;;;;;7.25;2.50;;;;;;;17.84;76.61;102603.19;5043103;28;20044;-81
2021/07/18 06:00:12;;;;;;;5.75;2.13;;;;;;;17.92;75.51;102600.53;5041296;28;20037;-81
2021/07/18 06:02:37;;;;;;;2.63;2.20;;;;;;;18.04;74.73;102613.75;5043354;28;20101;-82
2021/07/18 06:05:04;;;;;;;5.72;2.30;;;;;;;18.21;74.03;102603.03;5041578;28;20040;-82
2021/07/18 06:07:30;;;;;;;3.50;2.00;;;;;;;18.43;72.89;102613.53;5041741;28;20184;-80
2021/07/18 06:09:55;;;;;;;2.35;1.50;;;;;;;18.64;72.29;102601.88;5039204;28;20030;-83
2021/07/18 06:12:21;;;;;;;4.78;2.40;;;;;;;18.84;72.09;102607.94;5040198;28;20041;-81
2021/07/18 06:14:47;;;;;;;3.70;2.80;;;;;;;18.98;71.76;102609.59;5034068;28;20037;-79
2021/07/18 06:17:13;;;;;;;6.50;2.35;;;;;;;19.16;71.76;102605.91;5037176;28;20788;-79
2021/07/18 06:19:39;;;;;;;5.13;2.10;;;;;;;19.34;70.64;102604.81;5037105;28;20045;-80
2021/07/18 06:22:06;;;;;;;3.33;2.00;;;;;;;19.60;70.25;102612.53;5043154;28;20025;-78
2021/07/18 06:24:32;;;;;;;4.32;2.45;;;;;;;19.76;68.45;102619.50;5043973;28;20045;-80
2021/07/18 06:26:58;;;;;;;7.32;2.10;;;;;;;19.92;67.79;102609.53;5040335;28;20021;-79
2021/07/18 06:29:23;;;;;;;5.82;1.90;;;;;;;20.10;67.71;102608.41;5041496;28;20033;-78
2021/07/18 06:31:48;;;;;;;3.30;1.65;;;;;;;20.37;66.07;102608.91;5039343;28;20033;-79
2021/07/18 06:34:14;;;;;;;2.63;1.60;;;;;;;20.73;64.83;102612.84;5042373;28;20073;-80
2021/07/18 06:36:39;;;;;;;3.78;2.20;;;;;;;20.86;64.43;102608.19;5034642;28;20080;-80
2021/07/18 06:39:04;;;;;;;4.28;1.75;;;;;;;21.15;63.37;102607.69;5039884;28;20392;-79
2021/07/18 06:41:30;;;;;;;3.72;1.80;;;;;;;21.26;63.42;102609.28;5040223;28;20058;-79
2021/07/18 06:43:55;;;;;;;4.88;2.22;;;;;;;21.45;62.04;102604.50;5038881;28;20101;-79
2021/07/18 06:46:21;;;;;;;4.95;1.90;;;;;;;21.47;63.04;102602.66;5040314;28;20100;-79
2021/07/18 06:48:46;;;;;;;3.00;1.90;;;;;;;21.53;62.10;102616.81;5042737;28;20034;-80
2021/07/18 06:51:12;;;;;;;3.60;1.90;;;;;;;21.55;61.79;102612.31;5041406;28;20064;-78
2021/07/18 06:53:37;;;;;;;2.10;1.50;;;;;;;21.58;62.11;102612.25;5043861;28;20022;-79
2021/07/18 06:56:03;;;;;;;4.53;1.90;;;;;;;21.63;60.94;102606.81;4998535;28;20026;-78
2021/07/18 06:58:28;;;;;;;5.18;1.90;;;;;;;21.73;60.98;102611.06;5042484;28;20033;-78
2021/07/18 07:00:53;;;;;;;4.72;1.73;;;;;;;21.79;60.81;102602.88;5039977;28;20453;-79
2021/07/18 07:03:20;;;;;;;4.93;1.83;;;;;;;21.88;60.33;102606.31;5043649;28;20349;-78
2021/07/18 07:05:45;;;;;;;3.38;1.60;;;;;;;21.88;60.89;102606.31;5049761;28;20030;-77
2021/07/18 07:08:11;;;;;;;5.18;1.88;;;;;;;21.91;60.00;102608.91;5038043;28;20134;-76
2021/07/18 07:10:36;;;;;;;2.85;1.80;;;;;;;21.89;59.58;102603.59;5044791;28;20491;-77
2021/07/18 07:13:02;;;;;;;4.65;1.90;;;;;;;21.94;59.35;102609.72;5049464;28;20044;-76
2021/07/18 07:15:27;;;;;;;3.53;1.75;;;;;;;22.03;60.15;102605.09;5043175;28;20097;-77
2021/07/18 07:17:53;;;;;;;5.10;2.10;;;;;;;22.07;58.71;102607.66;5039396;28;20116;-75
2021/07/18 07:20:18;;;;;;;5.72;1.90;;;;;;;22.15;58.94;102604.81;5042197;28;20026;-74
2021/07/18 07:22:43;;;;;;;3.28;1.88;;;;;;;22.23;59.40;102616.25;5046657;28;20476;-76
2021/07/18 07:25:13;;;;;;;6.20;1.98;;;;;;;22.32;58.71;102617.84;5042726;28;20115;-74
2021/07/18 07:27:38;;;;;;;4.28;1.75;;;;;;;22.44;57.95;102608.66;5045646;28;20560;-74
2021/07/18 07:30:07;;;;;;;2.72;1.58;;;;;;;22.56;57.29;102611.91;5026488;28;20422;-75
2021/07/18 07:32:32;;;;;;;3.83;1.85;;;;;;;22.71;57.19;102610.66;5046905;28;20059;-74
2021/07/18 07:34:58;;;;;;;4.30;1.60;;;;;;;22.78;57.18;102614.97;5044790;28;20060;-76
2021/07/18 07:37:24;;;;;;;5.03;1.50;;;;;;;22.81;56.14;102611.31;5042150;28;20065;-74
2021/07/18 07:39:53;;;;;;;5.93;1.83;;;;;;;22.72;56.83;102611.53;5040519;28;20038;-73
2021/07/18 07:42:20;;;;;;;7.73;1.73;;;;;;;22.78;57.14;102609.59;5035608;28;20390;-74
2021/07/18 07:44:46;;;;;;;3.03;1.63;;;;;;;22.95;56.92;102606.50;5045503;28;20025;-76
2021/07/18 07:47:12;;;;;;;2.97;1.83;;;;;;;23.05;56.72;102614.34;5046786;28;20059;-74
2021/07/18 07:49:37;;;;;;;2.70;1.90;;;;;;;23.18;56.08;102607.72;5046653;28;20028;-73
2021/07/18 07:52:03;;;;;;;3.40;1.40;;;;;;;23.26;55.83;102605.72;5053503;28;20035;-75
2021/07/18 07:54:28;;;;;;;4.22;1.45;;;;;;;23.35;54.81;102610.84;5060219;28;20035;-74
2021/07/18 07:56:53;;;;;;;2.50;1.20;;;;;;;23.45;53.76;102607.91;5030619;28;20024;-75
2021/07/18 07:59:19;;;;;;;2.70;1.80;;;;;;;23.48;52.62;102605.13;5035747;28;20098;-73
2021/07/18 08:01:44;;;;;;;3.72;1.45;;;;;;;23.47;54.27;102614.09;5045184;28;20439;-74
2021/07/18 08:04:09;;;;;;;3.22;1.63;;;;;;;23.53;54.16;102619.28;5044324;28;20044;-73
2021/07/18 08:06:35;;;;;;;2.95;1.50;;;;;;;23.62;53.75;102607.41;5042760;28;20079;-72
2021/07/18 08:09:00;;;;;;;3.78;1.45;;;;;;;23.72;54.03;102608.91;5044011;28;20055;-73
2021/07/18 08:11:26;;;;;;;1.75;1.58;;;;;;;23.81;53.97;102611.34;5040866;28;20791;-73
2021/07/18 08:13:51;;;;;;;4.50;1.65;;;;;;;23.82;52.47;102610.44;5044690;28;20039;-73
2021/07/18 08:16:17;;;;;;;4.45;1.60;;;;;;;23.78;52.38;102615.91;5035238;28;20038;-74
2021/07/18 08:18:42;;;;;;;4.10;1.63;;;;;;;23.83;52.09;102614.00;5037726;28;20030;-74
2021/07/18 08:21:07;;;;;;;3.97;1.60;;;;;;;23.93;52.57;102616.38;5038227;28;20056;-72
2021/07/18 08:23:33;;;;;;;3.40;1.40;;;;;;;23.97;52.32;102614.47;5039073;28;20038;-75
2021/07/18 08:25:59;;;;;;;4.43;1.65;;;;;;;24.02;52.52;102612.50;5041523;28;20044;-74
2021/07/18 08:28:25;;;;;;;3.47;1.70;;;;;;;23.99;52.98;102611.72;5041166;28;20053;-73
2021/07/18 08:30:51;;;;;;;3.47;1.65;;;;;;;24.03;52.87;102603.56;5016550;28;20029;-72
2021/07/18 08:33:16;;;;;;;4.13;1.75;;;;;;;24.22;53.03;102603.00;5040840;28;20040;-73
2021/07/18 08:35:41;;;;;;;6.13;1.75;;;;;;;24.24;52.08;102601.13;5040353;28;20045;-76
2021/07/18 08:38:07;;;;;;;6.35;1.80;;;;;;;24.43;50.66;102602.28;5042654;28;20063;-74
2021/07/18 08:40:34;;;;;;;2.22;1.40;;;;;;;24.52;50.99;102610.09;5036960;28;20167;-72
2021/07/18 08:43:01;;;;;;;5.60;1.40;;;;;;;24.67;50.56;102608.72;5031871;28;20034;-72
2021/07/18 08:45:26;;;;;;;2.60;1.33;;;;;;;24.69;50.93;102603.28;5030928;28;20044;-72
2021/07/18 08:47:52;;;;;;;3.53;1.67;;;;;;;24.61;51.03;102608.94;5030806;28;20120;-78
2021/07/18 08:50:17;;;;;;;2.47;1.70;;;;;;;24.52;50.28;102606.53;5028803;28;20046;-72
2021/07/18 08:52:51;;;;;;;3.63;1.35;;;;;;;24.51;50.81;102604.72;5030930;28;20029;-71
2021/07/18 08:55:16;;;;;;;3.55;1.63;;;;;;;24.59;51.64;102596.44;5029733;28;20137;-71
2021/07/18 08:57:42;;;;;;;4.65;1.55;;;;;;;24.77;51.26;102600.34;5029660;28;20030;-72
2021/07/18 09:00:08;;;;;;;5.97;1.58;;;;;;;24.79;50.77;102588.59;5030898;28;20144;-71
2021/07/18 09:02:34;;;;;;;5.85;1.80;;;;;;;24.88;50.78;102599.03;5031449;28;20057;-72
2021/07/18 09:05:00;;;;;;;6.22;1.88;;;;;;;25.06;49.48;102597.50;5030521;28;20030;-72
2021/07/18 09:07:25;;;;;;;3.20;1.70;;;;;;;25.01;50.07;102590.53;5030369;28;20113;-72
2021/07/18 09:10:04;;;;;;;2.85;1.52;;;;;;;25.03;49.61;102604.84;5037973;28;20148;-71
2021/07/18 09:12:29;;;;;;;3.15;1.70;;;;;;;25.04;49.55;102594.00;5039622;28;20036;-71
2021/07/18 09:14:58;;;;;;;5.25;2.00;;;;;;;25.00;49.71;102592.34;5022223;28;20050;-72
2021/07/18 09:17:25;;;;;;;2.30;1.83;;;;;;;25.08;49.31;102597.47;5034980;28;20056;-71
2021/07/18 09:19:50;;;;;;;4.95;1.80;;;;;;;25.16;49.28;102598.09;5041178;28;20480;-73
2021/07/18 09:22:19;;;;;;;5.25;3.33;;;;;;;25.29;48.74;102594.06;5042478;28;20049;-72
2021/07/18 09:24:47;;;;;;;4.05;2.65;;;;;;;25.41;48.26;102592.72;5040493;28;20021;-72
2021/07/18 09:27:27;;;;;;;4.73;1.53;;;;;;;25.42;48.92;102593.59;5030278;28;20033;-72
2021/07/18 09:29:54;;;;;;;3.08;2.53;;;;;;;25.48;48.31;102588.88;5026651;28;20033;-72
2021/07/18 09:32:25;;;;;;;5.45;2.13;;;;;;;25.48;47.83;102591.56;5026345;28;20096;-67
2021/07/18 09:35:04;;;;;;;2.45;1.50;;;;;;;25.54;48.48;102587.78;5038400;28;20089;-67
2021/07/18 09:37:32;;;;;;;2.05;1.40;;;;;;;25.56;48.12;102593.97;5036822;28;20030;-66
2021/07/18 09:40:18;;;;;;;4.72;2.03;;;;;;;25.48;48.14;102596.97;5038280;28;20045;-67
2021/07/18 09:42:48;;;;;;;6.47;2.30;;;;;;;25.38;50.31;102592.81;5031358;28;20025;-67
2021/07/18 09:45:24;;;;;;;3.58;1.98;;;;;;;25.44;48.61;102595.31;5011745;28;20673;-67
2021/07/18 09:47:55;;;;;;;2.88;1.70;;;;;;;25.47;47.78;102586.25;5028136;28;20547;-67
2021/07/18 09:50:25;;;;;;;3.90;1.77;;;;;;;25.53;48.13;102577.94;5029602;28;20041;-68
2021/07/18 09:53:04;;;;;;;5.03;1.85;;;;;;;25.44;48.16;102589.94;5029593;28;20112;-67
2021/07/18 09:55:30;;;;;;;4.45;1.70;;;;;;;25.56;48.72;102580.53;5031533;28;20037;-67
2021/07/18 09:57:56;;;;;;;2.97;1.52;;;;;;;25.67;46.94;102572.03;5030337;28;20045;-67
2021/07/18 10:00:37;;;;;;;2.97;1.45;;;;;;;25.63;47.19;102581.16;5028425;28;20263;-67
2021/07/18 10:03:13;;;;;;;1.58;1.38;;;;;;;25.65;47.49;102584.66;5028602;28;20110;-67
2021/07/18 10:05:38;;;;;;;4.28;1.65;;;;;;;25.57;49.36;102590.34;5030166;28;20037;-67
2021/07/18 10:08:09;;;;;;;3.95;1.90;;;;;;;25.54;47.08;102582.41;5030326;28;20026;-68
2021/07/18 10:10:35;;;;;;;3.55;1.60;;;;;;;25.57;47.57;102576.88;5037969;28;20031;-66
2021/07/18 10:13:02;;;;;;;4.03;1.58;;;;;;;25.60;48.15;102583.97;5041665;28;20036;-66
2021/07/18 10:15:28;;;;;;;2.28;1.40;;;;;;;25.73;47.27;102578.97;5041448;28;20228;-66
2021/07/18 10:17:54;;;;;;;2.25;1.40;;;;;;;25.94;45.59;102574.66;5041576;28;20049;-67
2021/07/18 10:20:26;;;;;;;3.30;1.40;;;;;;;25.95;45.13;102571.00;5037532;28;20424;-67
2021/07/18 10:22:55;;;;;;;2.30;1.50;;;;;;;25.82;45.25;102578.63;5032135;28;20077;-67
2021/07/18 10:25:24;;;;;;;2.53;1.55;;;;;;;25.70;47.01;102574.59;5029857;28;20088;-66
2021/07/18 10:27:50;;;;;;;4.73;1.50;;;;;;;25.55;47.24;102581.44;5028647;28;20083;-67
2021/07/18 10:30:18;;;;;;;2.90;1.30;;;;;;;25.65;46.63;102577.50;5015945;28;20324;-66
2021/07/18 10:32:45;;;;;;;1.25;1.13;;;;;;;25.76;46.07;102574.38;5031931;28;20063;-68
2021/07/18 10:35:12;;;;;;;1.77;1.30;;;;;;;25.65;45.42;102574.81;5032142;28;20105;-67
2021/07/18 10:37:39;;;;;;;2.15;1.40;;;;;;;25.56;46.20;102569.75;5032308;28;20065;-67
2021/07/18 10:40:18;;;;;;;2.42;1.60;;;;;;;25.56;47.75;102575.16;5032549;28;20050;-67
2021/07/18 10:42:44;;;;;;;2.58;1.35;;;;;;;25.68;46.45;102573.78;5024395;28;20137;-67
2021/07/18 10:45:27;;;;;;;4.03;1.70;;;;;;;25.72;46.90;102566.47;5025579;28;20120;-68
2021/07/18 10:47:57;;;;;;;2.20;1.60;;;;;;;25.79;46.17;102568.88;5025032;28;20033;-69
2021/07/18 10:50:41;;;;;;;3.05;1.40;;;;;;;25.74;46.24;102568.16;5024411;28;20042;-67
2021/07/18 10:53:28;;;;;;;2.33;1.50;;;;;;;25.78;45.36;102555.47;5023929;28;20030;-68
2021/07/18 10:55:55;;;;;;;2.65;1.67;;;;;;;25.77;46.16;102565.38;5022735;28;20110;-67
2021/07/18 10:58:38;;;;;;;2.63;1.30;;;;;;;25.86;45.77;102556.94;5024817;28;20053;-68
2021/07/18 11:01:28;;;;;;;7.22;1.55;;;;;;;25.93;46.08;102560.28;5020141;28;20041;-69
2021/07/18 11:03:53;;;;;;;3.60;1.50;;;;;;;25.98;45.86;102563.69;5024642;28;20029;-69
2021/07/18 11:06:29;;;;;;;2.30;1.48;;;;;;;25.87;46.30;102560.50;5022985;28;20065;-70
2021/07/18 11:09:15;;;;;;;2.42;1.50;;;;;;;25.86;45.31;102561.44;5022039;28;20061;-67
2021/07/18 11:11:51;;;;;;;6.55;1.88;;;;;;;25.71;46.83;102565.63;5024459;28;20101;-69
2021/07/18 11:14:42;;;;;;;4.88;1.70;;;;;;;25.66;46.33;102562.22;5026019;28;20095;-71
2021/07/18 11:17:23;;;;;;;1.88;1.70;;;;;;;25.76;46.14;102565.41;5001273;28;20120;-66
2021/07/18 11:19:59;;;;;;;4.13;2.00;;;;;;;25.58;46.65;102556.25;5029339;28;20026;-68
2021/07/18 11:23:03;;;;;;;4.05;1.90;;;;;;;25.49;47.42;102552.94;5025456;28;20478;-69